Portada
METAR-TAF:

METAR-TAF

Aeroports :

Libreville, Gabon

latitud: 00-27N, longitud: 009-25E, altitud: 12 m

Observació

L'informe es va fer fa 38 minuts, a les 05:00 UTC
Vent 6 kt del Sud
Temperatura 26°C
Humitat 84%
Pressió 1013 hPa
Visibilitat 10 km o més
Escasses núvols a una alçada de 1100 ft

METAR: FOOL 210500Z 17006KT 9999 FEW011 26/23 Q1013 NOSIG

Hora: 06:38 (05:38 UTC)

Pronòstic

L'informe es va fer fa 6 hores i 38 minuts, a les 23:00 UTC
Pronòstic vàlid del 21 a les 00 UTC al 22 a les 06 UTC
Vent 8 kt del Sud/Sud-Oest
Visibilitat 10 km o més
Núvols disperses a una alçada de 1100 ft
Cel ennuvolat a una alçada de 2600 ft
Probabilitat 30% :
Temporalment
l' 21 a les 03 UTC al 21 a les 07 UTC
Visibilitat: 4500 m
pluja, plugim

TAF: FOOL 202300Z 2100/2206 21008KT 9999 SCT011 BKN026 PROB30 TEMPO 2103/2107 4500 RADZ

Observacions i pronòstics meteorològics de més de 4000 aeroports (METAR i TAF).

Les estacions disponibles són els punts grocs i vermells al mapa.

Posi el ratolí al punt desitjat per veure el nom de l'estació.

Feu clic per veure les observacions i els pronòstics meteorològics.

Per canviar el mapa: feu clic els botons verds amb una creu de color negre per apropar; al botó verd amb un guió per allunyar la imatge; o en les fletxes verdes per a mapes adjacents.


METAR-TAF: